Terminal Aerodrome Forecast
Issued by NWS

Home | Current Version | Previous Version | Text Only | Print | Product List | Glossary On
Versions: 1 2 3 4 5 6 7 8 9 10 11 12 13 14 15 16 17
000
FTUS43 KJKL 260852 AAB
TAFSME
TAF AMD
KSME 260852Z 2609/2706 01008KT 5SM BR VCSH OVC004
     FM261300 VRB03KT P6SM OVC010
     FM261500 01008KT P6SM OVC018
     FM262100 02006KT P6SM SCT025 BKN035=

USA.gov is the U.S. government's official web portal to all federal, state and local government web resources and services.